Airfield :
LOGIN :

Register | Disclaimer

   EN    FR    IT 

 










Legend :    VFR   Marginal VFR   IFR   Intensive IFR   Very Intensive IFR
Visi :
Ceiling :
>= 8 km
>= 3000ft
5 to 8 km
1000 to 3000 ft
1500m to 5 km
500 to 1000 ft
800 to 1500m
200 to 500 ft
< 800m
< 200 ft
Symbols :   Thunderstorms  Fog  Heavy snow  Heavy precipitations  Wind > 20 kt
SIGMETs :     Misc.  Thunderstorms  Icing  Turbulence  Mountain Waves  Volcanic Ashes






- Airport Elevation : 143 ft
- IATA code : VDP


EKVD - Kolding Vamdrup

CURRENT METAR :
  • 301050Z 29017KT 9999 SCT012 05/02 Q0999

EXPIRED METARs :
  • 300950Z 28014KT 9999 FEW017 SCT020CB 04/02 Q0999
  • 300850Z 29016G28KT 9999 -SHRA SCT017CB SCT020 04/02 Q0999

TAF TAF EKVD
Valid from the 30 at 09:00 until the 30 at 17:00 UTC


300858Z 3009/3017 28015G25KT 9999 SCT025
TEMPO 3009/3012 31022G35KT SHRAGS BKN012 BKN020CB
BECMG 3012/3015 31022G38KT



MET'MAP, your aeronautical weather chart ! - Copyright ORBIFLY December 2007 - Disclaimer

ORBIFLY MET'MAP TEAM :

Programming & Development : Alexandra Zaïnal
Original concept : Baudouin d'Aumeries
Technical & hardware support : Manuel Goepfert
Assistance : Marc-Olivier Méhu




SOURCES & CREDITS :

   NOAA